Baker, Illinois
Current Conditions -  °F | °C
As of 7:13 AM on Saturday 25 Oct 2014 (Local Time) from KARR Reporting Station
Haze Haze  
Wind Chill: 47°   Ceiling: Unl
Heat Index: 49°   Visibility: 1.5mi
Dew Point: 48°   Wind: 6mph
Humidity: 97%   Direction: 250°WSW
Pressure: 29.93"   Gusts: NA
Location:  41.5827°N, 88.7731°W
Report Text: KARR 251213Z 25005KT 1 1/2SM BR FEW009 09/09 A2993 RMK AO2 T00940089
Loading
Personal Weather Stations






























Interactive Weather Map
Tropical Storm Tracking
New forecast layout! Learn more

10-Day Weather Forecast

Advertisements
Track Severe Weather on mobile